createdAt,value
2018-05-10T00:00:34.962Z,9.60
2018-05-10T00:01:34.953Z,10.10
2018-05-10T00:02:34.939Z,15.20
2018-05-10T00:03:34.926Z,13.50
2018-05-10T00:04:34.914Z,12.10
2018-05-10T00:05:34.901Z,15.10
2018-05-10T00:06:34.889Z,11.20
2018-05-10T00:07:34.887Z,14.50
2018-05-10T00:08:34.869Z,11.80
2018-05-10T00:09:34.852Z,12.90
2018-05-10T00:10:34.839Z,14.40
2018-05-10T00:11:34.825Z,11.90
2018-05-10T00:12:34.813Z,13.90
2018-05-10T00:13:34.816Z,10.50
2018-05-10T00:14:34.789Z,13.80
2018-05-10T00:15:34.790Z,18.30
2018-05-10T00:16:34.764Z,13.70
2018-05-10T00:17:34.751Z,12.10
2018-05-10T00:18:34.743Z,16.00
2018-05-10T00:19:34.744Z,10.80
2018-05-10T00:20:34.715Z,10.80
2018-05-10T00:21:34.713Z,12.70
2018-05-10T00:22:34.689Z,12.80
2018-05-10T00:23:34.678Z,13.40
2018-05-10T00:24:34.665Z,14.60
2018-05-10T00:25:34.652Z,12.00
2018-05-10T00:26:34.653Z,11.90
2018-05-10T00:27:34.629Z,15.20
2018-05-10T00:28:34.615Z,10.70
2018-05-10T00:29:34.603Z,10.70
2018-05-10T00:30:34.600Z,11.00
2018-05-10T00:31:34.578Z,12.90
2018-05-10T00:32:34.564Z,19.10
2018-05-10T00:33:34.562Z,11.70
2018-05-10T00:34:34.693Z,10.30
2018-05-10T00:35:34.527Z,14.20
2018-05-10T00:36:34.516Z,13.10
2018-05-10T00:37:34.504Z,12.30
2018-05-10T00:38:34.493Z,13.50
2018-05-10T00:39:34.481Z,13.60
2018-05-10T00:40:34.469Z,12.70
2018-05-10T00:41:34.453Z,12.90
2018-05-10T00:42:34.449Z,10.60
2018-05-10T00:43:34.440Z,15.20
2018-05-10T00:44:34.425Z,14.40
2018-05-10T00:45:34.411Z,15.20
2018-05-10T00:46:34.392Z,11.20
2018-05-10T00:47:34.380Z,12.50
2018-05-10T00:48:34.370Z,9.70
2018-05-10T00:49:34.358Z,13.70
2018-05-10T00:50:34.342Z,15.20
2018-05-10T00:51:34.350Z,14.10
2018-05-10T00:52:34.320Z,12.80
2018-05-10T00:53:34.358Z,12.80
2018-05-10T00:54:34.298Z,14.90
2018-05-10T00:55:34.299Z,12.20
2018-05-10T00:56:34.272Z,12.10
2018-05-10T00:57:34.253Z,14.60
2018-05-10T00:58:34.248Z,17.10
2018-05-10T00:59:34.230Z,14.40
2018-05-10T01:00:34.225Z,18.80
2018-05-10T01:01:34.204Z,15.10
2018-05-10T01:02:34.194Z,16.10
2018-05-10T01:03:34.178Z,13.00
2018-05-10T01:04:34.174Z,11.00
2018-05-10T01:05:34.154Z,15.10
2018-05-10T01:06:34.148Z,12.80
2018-05-10T01:07:34.129Z,15.80
2018-05-10T01:08:34.117Z,12.70
2018-05-10T01:09:34.104Z,11.40
2018-05-10T01:10:34.090Z,12.80
2018-05-10T01:11:34.081Z,13.70
2018-05-10T01:12:34.074Z,16.00
2018-05-10T01:13:34.053Z,15.10
2018-05-10T01:14:34.040Z,14.40
2018-05-10T01:15:34.029Z,17.30
2018-05-10T01:16:34.024Z,17.10
2018-05-10T01:17:34.014Z,12.40
2018-05-10T01:18:33.990Z,15.90
2018-05-10T01:19:33.981Z,15.20
2018-05-10T01:20:33.965Z,15.60
2018-05-10T01:21:33.953Z,14.50
2018-05-10T01:22:33.941Z,12.30
2018-05-10T01:23:33.927Z,13.70
2018-05-10T01:24:33.924Z,13.60
2018-05-10T01:25:33.904Z,13.80
2018-05-10T01:26:33.891Z,13.40
2018-05-10T01:27:33.878Z,14.90
2018-05-10T01:28:33.870Z,15.30
2018-05-10T01:29:33.853Z,14.80
2018-05-10T01:30:33.845Z,14.60
2018-05-10T01:31:33.827Z,15.10
2018-05-10T01:32:33.819Z,14.90
2018-05-10T01:33:33.802Z,16.70
2018-05-10T01:34:33.789Z,14.30
2018-05-10T01:35:33.777Z,14.70
2018-05-10T01:36:33.765Z,12.40
2018-05-10T01:37:33.752Z,14.80
2018-05-10T01:38:33.739Z,15.70
2018-05-10T01:39:33.725Z,13.30
2018-05-10T01:40:33.711Z,14.80
2018-05-10T01:41:33.699Z,16.00
2018-05-10T01:42:33.688Z,15.50
2018-05-10T01:43:33.675Z,17.00
2018-05-10T01:44:33.662Z,14.00
2018-05-10T01:45:33.649Z,16.90
2018-05-10T01:46:33.637Z,17.20
2018-05-10T01:47:33.623Z,15.50
2018-05-10T01:48:33.619Z,16.90
2018-05-10T01:49:33.606Z,16.20
2018-05-10T01:50:33.584Z,16.10
2018-05-10T01:51:33.572Z,17.30
2018-05-10T01:52:33.561Z,16.60
2018-05-10T01:53:33.547Z,15.10
2018-05-10T01:54:33.538Z,14.20
2018-05-10T01:55:33.523Z,16.00
2018-05-10T01:56:33.519Z,18.80
2018-05-10T01:57:33.495Z,13.60
2018-05-10T01:58:33.484Z,14.20
2018-05-10T01:59:33.469Z,19.40
2018-05-10T02:00:33.458Z,16.60
2018-05-10T02:01:33.446Z,18.90
2018-05-10T02:02:33.433Z,12.50
2018-05-10T02:03:33.418Z,16.40
2018-05-10T02:04:33.408Z,15.10
2018-05-10T02:05:33.408Z,17.20
2018-05-10T02:06:33.390Z,15.50
2018-05-10T02:07:33.366Z,15.00
2018-05-10T02:08:33.405Z,17.80
2018-05-10T02:09:33.343Z,20.40
2018-05-10T02:10:33.331Z,16.50
2018-05-10T02:11:33.318Z,19.70
2018-05-10T02:12:33.307Z,16.10
2018-05-10T02:13:33.294Z,15.20
2018-05-10T02:14:33.281Z,12.90
2018-05-10T02:15:33.265Z,13.50
2018-05-10T02:16:33.260Z,16.70
2018-05-10T02:17:33.240Z,13.50
2018-05-10T02:18:33.228Z,17.20
2018-05-10T02:19:33.215Z,18.60
2018-05-10T02:20:33.203Z,15.00
2018-05-10T02:21:33.192Z,17.40
2018-05-10T02:22:33.177Z,17.20
2018-05-10T02:23:33.168Z,15.40
2018-05-10T02:24:33.151Z,16.90
2018-05-10T02:25:33.141Z,13.10
2018-05-10T02:26:33.134Z,14.00
2018-05-10T02:27:33.115Z,11.50
2018-05-10T02:28:33.100Z,17.30
2018-05-10T02:29:33.288Z,13.10
2018-05-10T02:30:33.076Z,12.10
2018-05-10T02:31:33.065Z,14.10
2018-05-10T02:32:33.049Z,12.50
2018-05-10T02:33:33.038Z,13.10
2018-05-10T02:34:33.032Z,13.30
2018-05-10T02:35:33.009Z,13.10
2018-05-10T02:36:32.997Z,14.00
2018-05-10T02:37:32.985Z,17.30
2018-05-10T02:38:32.983Z,13.60
2018-05-10T02:39:32.971Z,18.50
2018-05-10T02:40:32.946Z,13.60
2018-05-10T02:41:32.932Z,15.80
2018-05-10T02:42:32.920Z,15.70
2018-05-10T02:43:32.908Z,16.20
2018-05-10T02:44:32.893Z,16.40
2018-05-10T02:45:32.881Z,17.40
2018-05-10T02:46:32.875Z,17.70
2018-05-10T02:48:17.289Z,19.40
2018-05-10T02:50:36.403Z,21.50
2018-05-10T02:51:36.387Z,20.70
2018-05-10T02:52:36.374Z,19.70
2018-05-10T02:53:36.359Z,18.30
2018-05-10T02:54:36.347Z,22.30
2018-05-10T02:55:36.332Z,23.20
2018-05-10T02:56:36.324Z,26.50
2018-05-10T02:57:36.315Z,26.20
2018-05-10T02:58:36.303Z,31.10
2018-05-10T02:59:36.285Z,25.70
2018-05-10T03:00:36.270Z,33.00
2018-05-10T03:01:36.266Z,33.80
2018-05-10T03:02:36.245Z,40.90
2018-05-10T03:03:36.228Z,38.80
2018-05-10T03:04:36.216Z,46.70
2018-05-10T03:06:34.862Z,43.70
2018-05-10T03:07:34.852Z,45.30
2018-05-10T03:08:34.836Z,45.90
2018-05-10T03:09:34.813Z,49.10
2018-05-10T03:10:34.795Z,47.30
2018-05-10T03:11:34.787Z,47.00
2018-05-10T03:12:34.777Z,47.60
2018-05-10T03:13:37.379Z,52.20
2018-05-10T03:14:34.751Z,51.50
2018-05-10T03:15:34.730Z,57.40
2018-05-10T03:16:34.723Z,52.00
2018-05-10T03:17:34.705Z,55.40
2018-05-10T03:18:34.690Z,61.00
2018-05-10T03:19:34.675Z,61.30
2018-05-10T03:20:34.661Z,62.70
2018-05-10T03:21:34.646Z,59.00
2018-05-10T03:22:34.635Z,64.20
2018-05-10T03:23:34.620Z,63.60
2018-05-10T03:24:34.610Z,64.30
2018-05-10T03:25:34.594Z,67.20
2018-05-10T03:26:34.582Z,69.10
2018-05-10T03:27:34.566Z,71.50
2018-05-10T03:28:34.553Z,69.20
2018-05-10T03:29:34.559Z,68.50
2018-05-10T03:30:34.531Z,72.40
2018-05-10T03:31:34.517Z,75.00
2018-05-10T03:32:34.500Z,87.20
2018-05-10T03:33:34.486Z,82.70
2018-05-10T03:34:34.471Z,89.90
2018-05-10T03:35:34.458Z,85.20
2018-05-10T03:36:34.445Z,89.50
2018-05-10T03:37:34.435Z,92.70
2018-05-10T03:38:34.419Z,101.50
2018-05-10T03:39:34.404Z,100.20
2018-05-10T03:40:34.435Z,101.00
2018-05-10T03:41:34.376Z,94.10
2018-05-10T03:42:34.364Z,101.70
2018-05-10T03:43:34.349Z,108.00
2018-05-10T03:44:34.336Z,102.80
2018-05-10T03:45:34.324Z,105.40
2018-05-10T03:46:34.312Z,103.60
2018-05-10T03:47:34.305Z,110.00
2018-05-10T03:48:34.285Z,107.10
2018-05-10T03:49:34.266Z,110.50
2018-05-10T03:50:34.253Z,116.30
2018-05-10T03:51:34.238Z,114.20
2018-05-10T03:52:34.227Z,118.00
2018-05-10T03:53:34.212Z,116.70
2018-05-10T03:54:34.199Z,116.80
2018-05-10T03:55:34.183Z,120.80
2018-05-10T03:56:34.179Z,119.20
2018-05-10T03:57:34.157Z,116.30
2018-05-10T03:58:34.152Z,116.60
2018-05-10T03:59:34.130Z,121.20
2018-05-10T04:00:34.114Z,125.20
2018-05-10T04:01:34.104Z,121.30
2018-05-10T04:02:34.089Z,123.60
2018-05-10T04:03:34.077Z,127.90
2018-05-10T04:04:34.060Z,122.70
2018-05-10T04:05:34.046Z,127.10
2018-05-10T04:06:34.034Z,124.10
2018-05-10T04:07:34.028Z,124.30
2018-05-10T04:08:34.006Z,128.80
2018-05-10T04:09:33.990Z,127.20
2018-05-10T04:10:33.979Z,127.90
2018-05-10T04:11:33.970Z,130.90
2018-05-10T04:12:33.949Z,134.30
2018-05-10T04:13:33.937Z,128.10
2018-05-10T04:14:33.921Z,129.90
2018-05-10T04:15:33.927Z,132.70
2018-05-10T04:16:33.895Z,130.30
2018-05-10T04:17:33.879Z,128.50
2018-05-10T04:18:33.868Z,130.90
2018-05-10T04:19:33.861Z,131.30
2018-05-10T04:20:33.840Z,131.40
2018-05-10T04:21:33.831Z,130.00
2018-05-10T04:22:33.813Z,126.10
2018-05-10T04:23:33.797Z,125.20
2018-05-10T04:24:33.797Z,124.70
2018-05-10T04:25:33.770Z,123.50
2018-05-10T04:26:33.759Z,121.40
2018-05-10T04:27:33.746Z,123.70
2018-05-10T04:28:33.732Z,122.10
2018-05-10T04:29:33.717Z,122.30
2018-05-10T04:30:33.703Z,122.10
2018-05-10T04:31:33.690Z,122.00
2018-05-10T04:32:33.679Z,117.30
2018-05-10T04:33:33.662Z,115.40
2018-05-10T04:34:33.659Z,116.80
2018-05-10T04:35:33.636Z,119.00
2018-05-10T04:36:33.625Z,116.90
2018-05-10T04:37:33.616Z,115.30
2018-05-10T04:38:33.593Z,111.10
2018-05-10T04:39:33.582Z,109.30
2018-05-10T04:40:33.570Z,103.20
2018-05-10T04:41:33.554Z,101.60
2018-05-10T04:42:33.543Z,102.90
2018-05-10T04:43:33.530Z,98.90
2018-05-10T04:44:33.517Z,104.10
2018-05-10T04:45:33.500Z,98.20
2018-05-10T04:46:33.493Z,102.90
2018-05-10T04:47:33.476Z,98.20
2018-05-10T04:48:33.541Z,96.80
2018-05-10T04:49:33.450Z,94.20
2018-05-10T04:50:33.437Z,97.70
2018-05-10T04:51:33.427Z,95.40
2018-05-10T04:52:33.411Z,95.90
2018-05-10T04:53:33.402Z,89.00
2018-05-10T04:54:33.393Z,86.10
2018-05-10T04:55:33.380Z,87.60
2018-05-10T04:56:33.364Z,91.20
2018-05-10T04:57:33.346Z,86.50
2018-05-10T04:58:33.333Z,84.60
2018-05-10T04:59:33.320Z,84.00
2018-05-10T05:00:33.309Z,80.80
2018-05-10T05:01:33.294Z,87.40
2018-05-10T05:02:33.288Z,79.70
2018-05-10T05:03:33.276Z,79.80
2018-05-10T05:04:33.255Z,82.90
2018-05-10T05:05:33.240Z,81.50
2018-05-10T05:06:33.228Z,81.40
2018-05-10T05:07:33.223Z,83.20
2018-05-10T05:08:33.206Z,74.30
2018-05-10T05:09:33.191Z,73.00
2018-05-10T05:10:33.182Z,76.30
2018-05-10T05:11:33.163Z,72.00
2018-05-10T05:12:33.158Z,74.00
2018-05-10T05:13:33.136Z,73.90
2018-05-10T05:14:33.122Z,72.60
2018-05-10T05:15:33.109Z,69.50
2018-05-10T05:16:33.097Z,69.80
2018-05-10T05:17:33.083Z,70.50
2018-05-10T05:18:33.071Z,66.10
2018-05-10T05:19:33.058Z,63.70
2018-05-10T05:20:33.046Z,64.20
2018-05-10T05:21:33.109Z,70.50
2018-05-10T05:22:33.022Z,65.90
2018-05-10T05:23:33.063Z,64.10
2018-05-10T05:24:32.993Z,65.40
2018-05-10T05:25:32.981Z,65.70
2018-05-10T05:26:32.965Z,63.60
2018-05-10T05:27:32.954Z,65.10
2018-05-10T05:28:32.943Z,59.00
2018-05-10T05:29:32.927Z,63.10
2018-05-10T05:30:32.915Z,64.50
2018-05-10T05:31:32.900Z,65.10
2018-05-10T05:32:32.889Z,61.20
2018-05-10T05:33:32.876Z,63.80
2018-05-10T05:34:32.862Z,61.50
2018-05-10T05:35:32.896Z,61.00
2018-05-10T05:36:32.874Z,55.60
2018-05-10T05:37:32.825Z,57.70
2018-05-10T05:38:32.815Z,59.30
2018-05-10T05:39:32.797Z,58.70
2018-05-10T05:40:32.784Z,57.30
2018-05-10T05:41:32.772Z,54.10
2018-05-10T05:42:32.760Z,60.80
2018-05-10T05:43:32.851Z,54.30
2018-05-10T05:44:32.733Z,56.60
2018-05-10T05:45:32.724Z,56.60
2018-05-10T05:46:32.760Z,58.40
2018-05-10T05:47:32.691Z,59.50
2018-05-10T05:48:32.678Z,59.30
2018-05-10T05:49:32.713Z,57.20
2018-05-10T05:50:32.660Z,53.70
2018-05-10T05:51:32.638Z,53.30
2018-05-10T05:52:32.625Z,57.00
2018-05-10T05:53:32.610Z,55.70
2018-05-10T05:54:32.607Z,57.10
2018-05-10T05:55:32.585Z,56.60
2018-05-10T05:56:32.571Z,54.00
2018-05-10T05:57:32.557Z,55.50
2018-05-10T05:58:32.544Z,55.90
2018-05-10T05:59:32.532Z,57.10
2018-05-10T06:00:32.517Z,57.50
2018-05-10T06:01:32.505Z,59.10
2018-05-10T06:02:32.493Z,54.60
2018-05-10T06:03:32.479Z,56.00
2018-05-10T06:04:32.466Z,56.50
2018-05-10T06:05:32.452Z,54.20
2018-05-10T06:06:32.445Z,52.30
2018-05-10T06:07:32.431Z,54.70
2018-05-10T06:08:32.431Z,55.90
2018-05-10T06:09:32.400Z,53.20
2018-05-10T06:10:32.383Z,52.90
2018-05-10T06:11:32.371Z,53.80
2018-05-10T06:12:32.357Z,53.30
2018-05-10T06:13:32.347Z,51.50
2018-05-10T06:14:32.332Z,54.30
2018-05-10T06:15:32.378Z,50.60
2018-05-10T06:16:32.304Z,49.20
2018-05-10T06:17:32.292Z,52.90
2018-05-10T06:18:32.281Z,52.60
2018-05-10T06:19:32.265Z,52.80
2018-05-10T06:20:32.249Z,46.80
2018-05-10T06:21:32.238Z,49.90
2018-05-10T06:22:32.224Z,53.00
2018-05-10T06:23:32.219Z,46.70
2018-05-10T06:24:32.197Z,51.70
2018-05-10T06:25:32.185Z,50.30
2018-05-10T06:26:32.170Z,49.70
2018-05-10T06:27:32.159Z,51.30
2018-05-10T06:28:32.145Z,53.90
2018-05-10T06:29:32.130Z,52.60
2018-05-10T06:30:32.119Z,52.20
2018-05-10T06:31:32.111Z,54.10
2018-05-10T06:32:32.102Z,50.20
2018-05-10T06:33:32.086Z,47.20
2018-05-10T06:34:32.073Z,52.10
2018-05-10T06:35:32.079Z,53.40
2018-05-10T06:36:32.040Z,48.30
2018-05-10T06:37:32.031Z,48.00
2018-05-10T06:38:32.023Z,51.00
2018-05-10T06:39:32.030Z,52.50
2018-05-10T06:40:31.992Z,45.30
2018-05-10T06:41:32.062Z,47.10
2018-05-10T06:42:31.964Z,47.90
2018-05-10T06:43:31.962Z,40.00
2018-05-10T06:44:31.952Z,45.50
2018-05-10T06:45:31.935Z,45.10
2018-05-10T06:46:31.923Z,44.30
2018-05-10T06:47:31.914Z,43.40
2018-05-10T06:48:31.896Z,41.50
2018-05-10T06:49:31.886Z,44.50
2018-05-10T06:50:31.869Z,41.20
2018-05-10T06:51:31.857Z,39.50
2018-05-10T06:52:31.850Z,38.60
2018-05-10T06:53:31.835Z,41.70
2018-05-10T06:54:31.879Z,40.40
2018-05-10T06:55:31.812Z,41.00
2018-05-10T06:56:31.803Z,36.40
2018-05-10T06:57:31.791Z,39.00
2018-05-10T06:58:31.786Z,38.10
2018-05-10T06:59:32.380Z,40.00
2018-05-10T07:00:31.761Z,37.60
2018-05-10T07:01:31.752Z,38.80
2018-05-10T07:02:31.743Z,40.80
2018-05-10T07:03:31.734Z,41.20
2018-05-10T07:04:31.728Z,38.60
2018-05-10T07:05:31.745Z,41.40
2018-05-10T07:06:31.710Z,36.50
2018-05-10T07:07:31.696Z,40.20
2018-05-10T07:08:31.688Z,37.50
2018-05-10T07:09:31.837Z,41.90
2018-05-10T07:10:31.667Z,39.60
2018-05-10T07:11:31.665Z,37.70
2018-05-10T07:12:31.649Z,34.30
2018-05-10T07:13:31.638Z,35.30
2018-05-10T07:14:31.629Z,36.70
2018-05-10T07:15:31.621Z,37.20
2018-05-10T07:16:31.619Z,35.70
2018-05-10T07:17:31.600Z,34.90
2018-05-10T07:18:31.591Z,36.30
2018-05-10T07:19:31.582Z,35.00
2018-05-10T07:20:31.581Z,33.60
2018-05-10T07:21:31.561Z,32.10
2018-05-10T07:22:31.552Z,32.40
2018-05-10T07:23:31.558Z,30.90
2018-05-10T07:24:31.540Z,30.80
2018-05-10T07:25:31.524Z,30.00
2018-05-10T07:26:31.520Z,28.60
2018-05-10T07:27:31.506Z,30.40
2018-05-10T07:28:31.495Z,31.30
2018-05-10T07:29:31.484Z,30.90
2018-05-10T07:30:31.483Z,30.80
2018-05-10T07:31:31.465Z,30.60
2018-05-10T07:32:31.464Z,26.80
2018-05-10T07:33:31.449Z,26.90
2018-05-10T07:34:31.442Z,27.80
2018-05-10T07:35:31.427Z,28.50
2018-05-10T07:36:31.418Z,28.90
2018-05-10T07:37:31.416Z,30.10
2018-05-10T07:38:31.392Z,29.40
2018-05-10T07:39:31.383Z,28.10
2018-05-10T07:40:31.402Z,31.00
2018-05-10T07:41:31.367Z,33.40
2018-05-10T07:42:31.354Z,31.50
2018-05-10T07:43:31.348Z,32.00
2018-05-10T07:44:31.331Z,31.00
2018-05-10T07:45:31.322Z,33.90
2018-05-10T07:46:31.328Z,32.50
2018-05-10T07:47:31.301Z,36.20
2018-05-10T07:48:31.296Z,35.10
2018-05-10T07:49:31.431Z,30.20
2018-05-10T07:50:31.280Z,34.20
2018-05-10T07:51:31.260Z,38.00
2018-05-10T07:52:31.258Z,33.20
2018-05-10T07:53:31.240Z,34.50
2018-05-10T07:54:31.233Z,36.30
2018-05-10T07:55:31.220Z,36.00
2018-05-10T07:56:31.227Z,34.50
2018-05-10T07:57:31.200Z,34.30
2018-05-10T07:58:31.191Z,37.50
2018-05-10T07:59:31.180Z,37.30
2018-05-10T08:00:31.172Z,33.70
2018-05-10T08:01:31.160Z,37.30
2018-05-10T08:02:31.153Z,35.20
2018-05-10T08:03:31.147Z,35.40
2018-05-10T08:04:31.133Z,34.90
2018-05-10T08:05:31.174Z,35.80
2018-05-10T08:06:31.113Z,34.40
2018-05-10T08:07:31.110Z,32.90
2018-05-10T08:08:31.096Z,31.60
2018-05-10T08:09:31.090Z,35.00
2018-05-10T08:10:31.076Z,32.20
2018-05-10T08:11:31.085Z,31.10
2018-05-10T08:12:31.062Z,28.30
2018-05-10T08:13:31.081Z,32.80
2018-05-10T08:14:31.041Z,32.80
2018-05-10T08:15:31.034Z,31.80
2018-05-10T08:16:31.026Z,30.60
2018-05-10T08:17:31.016Z,33.80
2018-05-10T08:18:31.007Z,31.50
2018-05-10T08:19:30.998Z,31.60
2018-05-10T08:20:30.991Z,33.50
2018-05-10T08:21:30.988Z,35.30
2018-05-10T08:22:30.974Z,34.40
2018-05-10T08:23:30.963Z,32.70
2018-05-10T08:24:30.955Z,34.60
2018-05-10T08:25:30.954Z,35.40
2018-05-10T08:26:30.937Z,37.40
2018-05-10T08:27:30.930Z,35.70
2018-05-10T08:28:30.927Z,33.60
2018-05-10T08:29:30.913Z,35.30
2018-05-10T08:30:30.910Z,34.00
2018-05-10T08:31:30.893Z,33.80
2018-05-10T08:32:30.984Z,35.80
2018-05-10T08:33:30.873Z,34.50
2018-05-10T08:34:30.866Z,36.00
2018-05-10T08:35:30.856Z,32.30
2018-05-10T08:36:30.969Z,31.40
2018-05-10T08:37:30.838Z,32.40
2018-05-10T08:38:30.833Z,32.90
2018-05-10T08:39:30.824Z,33.80
2018-05-10T08:40:30.812Z,30.50
2018-05-10T08:41:30.803Z,29.60
2018-05-10T08:42:30.793Z,27.00
2018-05-10T08:43:30.785Z,29.30
2018-05-10T08:44:30.776Z,29.60
2018-05-10T08:45:30.768Z,27.70
2018-05-10T08:46:30.758Z,28.80
2018-05-10T08:47:30.756Z,26.40
2018-05-10T08:48:30.741Z,27.80
2018-05-10T08:49:30.739Z,26.80
2018-05-10T08:50:30.723Z,26.70
2018-05-10T08:51:34.202Z,25.40
2018-05-10T08:52:30.706Z,24.10
2018-05-10T08:53:30.700Z,21.80
2018-05-10T08:54:30.690Z,24.20
2018-05-10T08:55:30.698Z,25.00
2018-05-10T08:56:30.675Z,24.70
2018-05-10T08:57:30.671Z,22.90
2018-05-10T08:58:30.656Z,25.90
2018-05-10T08:59:30.657Z,22.40
2018-05-10T09:00:30.649Z,23.00
2018-05-10T09:01:30.630Z,21.00
2018-05-10T09:02:30.624Z,20.20
2018-05-10T09:03:30.626Z,19.40
2018-05-10T09:04:30.609Z,16.90
2018-05-10T09:05:30.598Z,17.80
2018-05-10T09:06:30.592Z,19.80
2018-05-10T09:07:30.691Z,19.90
2018-05-10T09:08:30.576Z,18.00
2018-05-10T09:09:30.566Z,17.60
2018-05-10T09:10:30.567Z,18.00
2018-05-10T09:11:30.552Z,14.70
2018-05-10T09:12:31.966Z,13.60
2018-05-10T09:13:30.539Z,13.20
2018-05-10T09:15:14.309Z,15.70
2018-05-10T09:16:14.306Z,13.80
2018-05-10T09:17:14.291Z,15.80
2018-05-10T09:18:14.284Z,18.80
2018-05-10T09:19:14.279Z,13.40
2018-05-10T09:20:14.276Z,12.90
2018-05-10T09:21:14.281Z,14.00
2018-05-10T09:22:14.260Z,14.90
2018-05-10T09:23:14.262Z,17.10
2018-05-10T09:24:14.239Z,15.50
2018-05-10T09:25:14.231Z,12.10
2018-05-10T09:26:14.237Z,15.90
2018-05-10T09:27:14.224Z,12.60
2018-05-10T09:28:14.210Z,10.80
2018-05-10T09:29:14.203Z,12.50
2018-05-10T09:30:14.196Z,13.30
2018-05-10T09:31:14.194Z,14.40
2018-05-10T09:32:14.181Z,15.90
2018-05-10T09:33:14.174Z,11.90
2018-05-10T09:34:14.180Z,15.10
2018-05-10T09:35:14.162Z,16.30
2018-05-10T09:36:14.155Z,14.00
2018-05-10T09:37:14.149Z,14.50
2018-05-10T09:38:14.141Z,14.60
2018-05-10T09:39:14.221Z,16.50
2018-05-10T09:40:14.147Z,17.30
2018-05-10T09:41:14.120Z,13.90
2018-05-10T09:42:14.129Z,14.90
2018-05-10T09:43:14.112Z,16.80
2018-05-10T09:44:14.103Z,17.80
2018-05-10T09:45:14.095Z,14.40
2018-05-10T09:46:14.225Z,16.40
2018-05-10T09:47:14.084Z,16.80
2018-05-10T09:48:14.084Z,16.30
2018-05-10T09:49:14.062Z,14.90
2018-05-10T09:50:14.066Z,15.30
2018-05-10T09:51:14.048Z,15.50
2018-05-10T09:52:14.040Z,16.40
2018-05-10T09:53:14.034Z,14.90
2018-05-10T09:54:14.022Z,15.20
2018-05-10T09:55:14.013Z,15.20
2018-05-10T09:56:14.009Z,20.20
2018-05-10T09:57:14.011Z,17.50
2018-05-10T09:58:13.989Z,14.30
2018-05-10T10:00:18.293Z,12.40
2018-05-10T10:01:18.283Z,13.70
2018-05-10T10:02:18.281Z,14.50
2018-05-10T10:03:18.264Z,13.40
2018-05-10T10:04:18.254Z,14.10
2018-05-10T10:05:18.246Z,18.10
2018-05-10T10:06:18.326Z,13.50
2018-05-10T10:07:18.225Z,16.00
2018-05-10T10:08:18.218Z,18.60
2018-05-10T10:09:18.211Z,12.80
2018-05-10T10:10:18.209Z,15.40
2018-05-10T10:11:18.188Z,18.20
2018-05-10T10:12:18.282Z,17.40
2018-05-10T10:13:51.378Z,16.80
2018-05-10T10:14:18.161Z,13.70
2018-05-10T10:15:18.146Z,16.10
2018-05-10T10:16:18.137Z,16.10
2018-05-10T10:17:18.136Z,14.80
2018-05-10T10:18:18.116Z,18.10
2018-05-10T10:19:18.120Z,18.20
2018-05-10T10:20:51.311Z,17.30
2018-05-10T10:21:18.086Z,16.60
2018-05-10T10:22:18.082Z,14.70
2018-05-10T10:23:18.063Z,17.30
2018-05-10T10:24:18.057Z,17.00
2018-05-10T10:25:18.093Z,15.80
2018-05-10T10:26:18.031Z,14.80
2018-05-10T10:27:18.045Z,15.50
2018-05-10T10:28:18.025Z,17.50
2018-05-10T10:29:18.021Z,17.40
2018-05-10T10:30:17.995Z,18.90
2018-05-10T10:31:17.980Z,18.20
2018-05-10T10:32:18.055Z,20.80
2018-05-10T10:33:17.965Z,21.70
2018-05-10T10:34:17.947Z,21.20
2018-05-10T10:35:17.948Z,20.60
2018-05-10T10:36:17.925Z,22.10
2018-05-10T10:37:17.922Z,18.60
2018-05-10T10:38:17.931Z,20.40
2018-05-10T10:39:17.894Z,19.90
2018-05-10T10:40:17.890Z,21.00
2018-05-10T10:41:17.889Z,23.90
2018-05-10T10:42:17.861Z,22.10
2018-05-10T10:43:17.852Z,24.40
2018-05-10T10:44:17.844Z,22.40
2018-05-10T10:45:17.835Z,24.20
2018-05-10T10:46:17.820Z,27.50
2018-05-10T10:47:17.812Z,25.40
2018-05-10T10:48:17.813Z,28.10
2018-05-10T10:49:17.787Z,28.30
2018-05-10T10:50:17.785Z,29.10
2018-05-10T10:51:17.763Z,29.40
2018-05-10T10:52:17.752Z,30.70
2018-05-10T10:53:17.742Z,28.90
2018-05-10T10:54:17.731Z,29.50
2018-05-10T10:55:17.723Z,30.30
2018-05-10T10:56:17.710Z,28.10
2018-05-10T10:57:17.705Z,28.00
2018-05-10T10:58:17.695Z,31.00
2018-05-10T10:59:17.702Z,28.80
2018-05-10T11:00:17.669Z,30.40
2018-05-10T11:01:17.679Z,30.30
2018-05-10T11:02:17.641Z,33.80
2018-05-10T11:03:17.629Z,34.70
2018-05-10T11:04:17.617Z,30.30
2018-05-10T11:05:17.615Z,31.70
2018-05-10T11:06:17.592Z,31.10
2018-05-10T11:07:17.584Z,34.80
2018-05-10T11:08:17.679Z,30.00
2018-05-10T11:09:17.662Z,31.60
2018-05-10T11:10:17.552Z,30.30
2018-05-10T11:11:17.543Z,31.30
2018-05-10T11:12:17.519Z,30.30
2018-05-10T11:13:17.508Z,30.20
2018-05-10T11:14:17.511Z,32.20
2018-05-10T11:15:17.495Z,31.90
2018-05-10T11:16:17.478Z,33.00
2018-05-10T11:17:17.459Z,33.70
2018-05-10T11:18:17.446Z,35.20
2018-05-10T11:19:17.438Z,34.40
2018-05-10T11:20:17.428Z,30.40
2018-05-10T11:21:17.420Z,33.30
2018-05-10T11:22:17.409Z,32.30
2018-05-10T11:23:17.384Z,31.50
2018-05-10T11:24:17.377Z,32.90
2018-05-10T11:25:17.365Z,33.10
2018-05-10T11:26:17.350Z,30.00
2018-05-10T11:27:17.388Z,29.40
2018-05-10T11:28:17.335Z,30.80
2018-05-10T11:29:17.312Z,32.20
2018-05-10T11:30:17.299Z,31.30
2018-05-10T11:31:17.293Z,27.70
2018-05-10T11:32:17.277Z,26.50
2018-05-10T11:33:17.292Z,32.60
2018-05-10T11:34:17.253Z,30.90
2018-05-10T11:35:17.235Z,31.60
2018-05-10T11:36:17.289Z,28.50
2018-05-10T11:37:17.210Z,30.40
2018-05-10T11:38:17.211Z,29.50
2018-05-10T11:39:17.185Z,29.60
2018-05-10T11:40:17.187Z,29.40
2018-05-10T11:41:17.259Z,30.30
2018-05-10T11:42:17.154Z,26.70
2018-05-10T11:43:17.137Z,31.10
2018-05-10T11:44:17.123Z,32.20
2018-05-10T11:45:17.120Z,33.60
2018-05-10T11:46:17.095Z,29.40
2018-05-10T11:47:17.087Z,26.00
2018-05-10T11:48:17.072Z,31.50
2018-05-10T11:49:17.065Z,28.00
2018-05-10T11:50:17.046Z,31.40
2018-05-10T11:51:17.035Z,29.90
2018-05-10T11:52:17.019Z,28.00
2018-05-10T11:53:17.011Z,29.70
2018-05-10T11:54:16.996Z,29.00
2018-05-10T11:55:16.982Z,30.10
2018-05-10T11:56:16.972Z,29.70
2018-05-10T11:57:17.066Z,33.90
2018-05-10T11:58:16.942Z,30.30
2018-05-10T11:59:16.934Z,32.70
2018-05-10T12:00:16.915Z,30.40
2018-05-10T12:01:16.920Z,32.40
2018-05-10T12:02:16.891Z,33.00
2018-05-10T12:03:16.877Z,29.20
2018-05-10T12:04:16.871Z,30.80
2018-05-10T12:05:16.851Z,29.80
2018-05-10T12:06:16.841Z,30.90
2018-05-10T12:07:16.828Z,31.90
2018-05-10T12:08:16.815Z,31.70
2018-05-10T12:09:16.814Z,31.40
2018-05-10T12:10:16.789Z,32.40
2018-05-10T12:11:16.785Z,30.00
2018-05-10T12:12:16.766Z,28.70
2018-05-10T12:13:16.753Z,28.80
2018-05-10T12:14:16.739Z,29.00
2018-05-10T12:15:16.737Z,29.50
2018-05-10T12:16:16.714Z,27.60
2018-05-10T12:17:16.709Z,33.30
2018-05-10T12:18:16.692Z,28.00
2018-05-10T12:19:16.732Z,26.30
2018-05-10T12:20:16.714Z,30.10
2018-05-10T12:21:16.650Z,30.60
2018-05-10T12:22:16.645Z,28.50
2018-05-10T12:23:16.628Z,26.10
2018-05-10T12:24:16.613Z,30.30
2018-05-10T12:25:16.603Z,27.50
2018-05-10T12:26:16.587Z,28.50
2018-05-10T12:27:16.578Z,26.30
2018-05-10T12:28:16.562Z,29.00
2018-05-10T12:29:16.548Z,22.60
2018-05-10T12:30:16.535Z,28.00
2018-05-10T12:31:16.528Z,23.00
2018-05-10T12:32:16.511Z,24.30
2018-05-10T12:33:16.508Z,25.10
2018-05-10T12:34:16.490Z,21.40
2018-05-10T12:35:16.482Z,19.20
2018-05-10T12:36:16.471Z,17.60
2018-05-10T12:37:16.447Z,23.20
2018-05-10T12:38:16.448Z,18.70
2018-05-10T12:39:16.442Z,20.00
2018-05-10T12:40:16.409Z,18.20
2018-05-10T12:41:16.400Z,17.60
2018-05-10T12:42:16.397Z,18.80
2018-05-10T12:43:16.381Z,15.80
2018-05-10T12:44:16.426Z,19.90
2018-05-10T12:45:16.345Z,19.30
2018-05-10T12:46:16.330Z,16.70
2018-05-10T12:47:16.322Z,16.50
2018-05-10T12:48:16.317Z,14.40
2018-05-10T12:49:16.292Z,14.30
2018-05-10T12:50:16.287Z,16.30
2018-05-10T12:51:16.265Z,12.80
2018-05-10T12:52:16.260Z,17.00
2018-05-10T12:53:16.236Z,15.70
2018-05-10T12:54:16.226Z,14.00
2018-05-10T12:55:16.217Z,16.30